Terminal Aerodrome Forecast
Issued by NWS Charleston, WV

Current Version | Previous Version | Graphics & Text | Print | Product List | Glossary On
Versions: 1 2 3 4 5 6 7 8 9 10 11 12 13 14 15 16 17 18 19 20 21 22 23 24 25
000
FTUS41 KRLX 030901 AAA
TAFCRW
TAF AMD
KCRW 030901Z 0309/0406 27004KT P6SM OVC035
     FM031200 27004KT P6SM OVC030
     FM031800 28004KT P6SM BKN035
     FM032300 VRB03KT P6SM BKN035=

USA.gov is the U.S. government's official web portal to all federal, state and local government web resources and services.